createdAt,value
2023-05-17T00:00:14.744Z,100837.19
2023-05-17T00:02:41.728Z,100832.09
2023-05-17T00:05:11.652Z,100839.03
2023-05-17T00:07:38.780Z,100840.66
2023-05-17T00:10:06.675Z,100838.69
2023-05-17T00:12:33.737Z,100846.69
2023-05-17T00:15:00.732Z,100842.00
2023-05-17T00:17:27.855Z,100847.53
2023-05-17T00:19:54.953Z,100842.16
2023-05-17T00:22:21.990Z,100848.22
2023-05-17T00:24:49.198Z,100839.44
2023-05-17T00:27:18.166Z,100842.00
2023-05-17T00:29:45.121Z,100848.44
2023-05-17T00:32:12.085Z,100849.22
2023-05-17T00:34:39.355Z,100851.44
2023-05-17T00:37:06.385Z,100855.75
2023-05-17T00:39:33.428Z,100854.19
2023-05-17T00:42:01.404Z,100861.69
2023-05-17T00:44:30.473Z,100865.78
2023-05-17T00:46:59.811Z,100861.75
2023-05-17T00:49:28.876Z,100859.16
2023-05-17T00:51:56.285Z,100859.44
2023-05-17T00:54:23.621Z,100858.94
2023-05-17T00:56:50.742Z,100859.97
2023-05-17T00:59:17.956Z,100866.31
2023-05-17T01:01:45.358Z,100857.22
2023-05-17T01:04:12.549Z,100850.50
2023-05-17T01:06:39.620Z,100849.84
2023-05-17T01:09:07.468Z,100857.41
2023-05-17T01:12:24.663Z,100850.31
2023-05-17T01:15:15.177Z,100855.91
2023-05-17T01:18:10.598Z,100855.03
2023-05-17T01:20:43.603Z,100862.31
2023-05-17T01:23:52.330Z,100858.13
2023-05-17T01:26:41.285Z,100857.22
2023-05-17T01:29:10.013Z,100855.53
2023-05-17T01:31:37.414Z,100867.28
2023-05-17T01:34:10.845Z,100872.16
2023-05-17T01:36:37.783Z,100870.72
2023-05-17T01:39:04.742Z,100879.63
2023-05-17T01:41:42.276Z,100876.97
2023-05-17T01:44:46.670Z,100872.00
2023-05-17T01:47:57.039Z,100877.78
2023-05-17T01:50:29.556Z,100883.84
2023-05-17T01:53:07.469Z,100885.97
2023-05-17T01:55:45.597Z,100891.13
2023-05-17T01:58:13.316Z,100882.47
2023-05-17T02:00:43.070Z,100892.88
2023-05-17T02:03:21.567Z,100881.31
2023-05-17T02:05:48.523Z,100890.94
2023-05-17T02:08:15.451Z,100890.44
2023-05-17T02:10:42.447Z,100887.44
2023-05-17T02:13:09.645Z,100887.91
2023-05-17T02:15:36.568Z,100885.06
2023-05-17T02:18:03.572Z,100895.34
2023-05-17T02:20:31.038Z,100894.44
2023-05-17T02:22:58.017Z,100898.63
2023-05-17T02:25:24.927Z,100903.91
2023-05-17T02:27:51.918Z,100906.50
2023-05-17T02:30:22.136Z,100901.13
2023-05-17T02:32:49.253Z,100905.13
2023-05-17T02:35:16.309Z,100914.50
2023-05-17T02:37:45.379Z,100910.00
2023-05-17T02:40:12.774Z,100909.50
2023-05-17T02:42:39.719Z,100912.91
2023-05-17T02:45:07.539Z,100911.22
2023-05-17T02:47:34.592Z,100918.03
2023-05-17T02:50:01.629Z,100910.78
2023-05-17T02:52:28.544Z,100905.47
2023-05-17T02:54:55.507Z,100901.78
2023-05-17T02:57:23.497Z,100900.94
2023-05-17T02:59:50.865Z,100905.28
2023-05-17T03:02:17.909Z,100913.97
2023-05-17T03:04:45.068Z,100910.00
2023-05-17T03:07:12.482Z,100906.53
2023-05-17T03:09:39.669Z,100897.63
2023-05-17T03:12:07.642Z,100907.19
2023-05-17T03:14:34.556Z,100899.44
2023-05-17T03:17:02.707Z,100905.03
2023-05-17T03:19:29.664Z,100899.28
2023-05-17T03:21:56.618Z,100903.81
2023-05-17T03:24:23.562Z,100909.66
2023-05-17T03:26:50.558Z,100913.91
2023-05-17T03:29:17.535Z,100913.78
2023-05-17T03:31:44.562Z,100914.00
2023-05-17T03:34:11.673Z,100922.38
2023-05-17T03:36:41.829Z,100912.94
2023-05-17T03:39:09.025Z,100916.13
2023-05-17T03:41:36.165Z,100923.91
2023-05-17T03:44:03.227Z,100923.72
2023-05-17T03:46:30.166Z,100924.13
2023-05-17T03:48:57.149Z,100924.84
2023-05-17T03:51:24.294Z,100933.16
2023-05-17T03:53:59.484Z,100933.81
2023-05-17T03:56:26.475Z,100941.41
2023-05-17T03:58:53.544Z,100942.97
2023-05-17T04:01:20.778Z,100947.97
2023-05-17T04:03:48.040Z,100947.22
2023-05-17T04:06:15.212Z,100946.75
2023-05-17T04:08:42.530Z,100945.44
2023-05-17T04:11:15.367Z,100943.75
2023-05-17T04:13:43.013Z,100943.47
2023-05-17T04:16:10.911Z,100949.94
2023-05-17T04:18:38.985Z,100955.34
2023-05-17T04:21:06.868Z,100953.66
2023-05-17T04:23:37.499Z,100953.78
2023-05-17T04:26:06.342Z,100956.63
2023-05-17T04:28:35.067Z,100951.38
2023-05-17T04:31:02.236Z,100961.38
2023-05-17T04:33:29.375Z,100956.47
2023-05-17T04:35:56.820Z,100962.03
2023-05-17T04:38:24.232Z,100962.59
2023-05-17T04:40:52.233Z,100961.94
2023-05-17T04:43:19.188Z,100968.03
2023-05-17T04:45:46.453Z,100957.00
2023-05-17T04:48:15.017Z,100965.03
2023-05-17T04:50:47.083Z,100971.50
2023-05-17T04:53:15.615Z,100978.00
2023-05-17T04:55:43.245Z,100971.41
2023-05-17T04:58:11.321Z,100970.69
2023-05-17T05:00:38.271Z,100974.47
2023-05-17T05:03:05.448Z,100978.22
2023-05-17T05:05:32.438Z,100990.72
2023-05-17T05:07:59.393Z,100994.84
2023-05-17T05:10:28.714Z,101004.88
2023-05-17T05:12:55.794Z,101003.69
2023-05-17T05:15:24.859Z,101019.22
2023-05-17T05:17:51.873Z,101018.53
2023-05-17T05:20:20.157Z,101022.66
2023-05-17T05:22:47.089Z,101019.28
2023-05-17T05:25:14.049Z,101021.59
2023-05-17T05:27:41.175Z,101034.38
2023-05-17T05:30:08.865Z,101033.22
2023-05-17T05:32:37.895Z,101035.19
2023-05-17T05:35:05.996Z,101042.44
2023-05-17T05:37:33.133Z,101031.69
2023-05-17T05:40:00.282Z,101027.34
2023-05-17T05:42:27.894Z,101032.94
2023-05-17T05:44:55.966Z,101028.91
2023-05-17T05:47:22.928Z,101026.31
2023-05-17T05:49:49.887Z,101024.34
2023-05-17T05:52:16.897Z,101028.44
2023-05-17T05:54:44.559Z,101028.22
2023-05-17T05:57:11.646Z,101024.22
2023-05-17T05:59:38.978Z,101037.78
2023-05-17T06:02:06.589Z,101024.56
2023-05-17T06:04:44.463Z,101024.47
2023-05-17T06:07:15.182Z,101039.06
2023-05-17T06:09:43.060Z,101038.53
2023-05-17T06:12:10.202Z,101035.13
2023-05-17T06:14:38.549Z,101037.53
2023-05-17T06:17:05.711Z,101046.91
2023-05-17T06:19:32.855Z,101053.00
2023-05-17T06:22:01.200Z,101057.88
2023-05-17T06:24:28.172Z,101058.69
2023-05-17T06:26:55.141Z,101042.56
2023-05-17T06:29:22.163Z,101054.25
2023-05-17T06:31:49.355Z,101049.22
2023-05-17T06:34:16.357Z,101042.19
2023-05-17T06:36:43.446Z,101063.78
2023-05-17T06:39:11.105Z,101053.13
2023-05-17T06:41:38.183Z,101047.78
2023-05-17T06:44:05.840Z,101043.16
2023-05-17T06:46:32.886Z,101056.38
2023-05-17T06:49:00.086Z,101052.38
2023-05-17T06:51:27.223Z,101054.44
2023-05-17T06:53:54.179Z,101050.88
2023-05-17T06:56:21.509Z,101045.81
2023-05-17T06:58:48.533Z,101052.44
2023-05-17T07:01:15.826Z,101044.31
2023-05-17T07:03:43.410Z,101057.25
2023-05-17T07:06:10.685Z,101045.00
2023-05-17T07:08:37.672Z,101058.53
2023-05-17T07:11:05.251Z,101044.78
2023-05-17T07:13:33.405Z,101045.03
2023-05-17T07:16:00.725Z,101060.84
2023-05-17T07:18:27.784Z,101044.22
2023-05-17T07:20:54.852Z,101052.84
2023-05-17T07:23:21.875Z,101057.41
2023-05-17T07:25:48.856Z,101057.63
2023-05-17T07:28:15.861Z,101053.00
2023-05-17T07:30:43.072Z,101055.66
2023-05-17T07:33:11.499Z,101072.00
2023-05-17T07:35:39.554Z,101076.28
2023-05-17T07:38:08.248Z,101082.63
2023-05-17T07:40:35.176Z,101070.59
2023-05-17T07:43:02.108Z,101057.97
2023-05-17T07:45:29.275Z,101064.31
2023-05-17T07:47:57.543Z,101054.00
2023-05-17T07:50:24.856Z,101069.38
2023-05-17T07:52:54.824Z,101048.22
2023-05-17T07:55:24.831Z,101053.72
2023-05-17T07:57:52.984Z,101050.56
2023-05-17T08:00:22.690Z,101051.91
2023-05-17T08:02:49.644Z,101057.00
2023-05-17T08:05:16.822Z,101059.03
2023-05-17T08:07:43.787Z,101067.97
2023-05-17T08:10:13.050Z,101047.41
2023-05-17T08:12:40.059Z,101048.16
2023-05-17T08:15:07.637Z,101044.78
2023-05-17T08:17:34.606Z,101039.38
2023-05-17T08:20:01.774Z,101034.28
2023-05-17T08:22:28.712Z,101032.91
2023-05-17T08:24:55.703Z,101046.63
2023-05-17T08:27:22.800Z,101035.16
2023-05-17T08:29:51.745Z,101028.59
2023-05-17T08:32:18.701Z,101015.94
2023-05-17T08:34:45.773Z,101014.75
2023-05-17T08:37:12.810Z,101024.59
2023-05-17T08:39:40.091Z,101017.91
2023-05-17T08:42:10.510Z,101016.66
2023-05-17T08:44:39.377Z,101017.16
2023-05-17T08:47:11.413Z,101027.97
2023-05-17T08:49:39.897Z,101009.53
2023-05-17T08:52:10.428Z,101006.59
2023-05-17T08:54:38.520Z,101007.44
2023-05-17T08:57:07.335Z,101012.28
2023-05-17T08:59:35.233Z,101019.31
2023-05-17T09:02:02.712Z,101029.44
2023-05-17T09:04:31.257Z,101010.53
2023-05-17T09:06:59.056Z,101009.28
2023-05-17T09:09:27.379Z,101002.81
2023-05-17T09:11:55.088Z,100987.25
2023-05-17T09:14:22.021Z,100998.44
2023-05-17T09:16:59.836Z,100995.75
2023-05-17T09:19:27.097Z,100984.47
2023-05-17T09:22:01.083Z,100994.50
2023-05-17T09:24:31.305Z,100993.78
2023-05-17T09:27:03.708Z,100988.09
2023-05-17T09:29:35.389Z,100983.09
2023-05-17T09:32:22.193Z,100994.44
2023-05-17T09:34:49.976Z,100994.56
2023-05-17T09:37:19.016Z,101007.63
2023-05-17T09:39:47.766Z,101008.88
2023-05-17T09:42:16.658Z,101009.34
2023-05-17T09:44:59.887Z,101010.63
2023-05-17T09:47:29.879Z,101006.75
2023-05-17T09:50:00.555Z,101004.72
2023-05-17T09:52:31.893Z,101010.69
2023-05-17T09:55:01.201Z,101022.94
2023-05-17T09:57:37.683Z,101006.50
2023-05-17T10:00:11.941Z,101019.00
2023-05-17T10:02:41.228Z,101026.38
2023-05-17T10:05:12.560Z,101026.00
2023-05-17T10:07:41.878Z,101018.16
2023-05-17T10:10:10.173Z,101015.91
2023-05-17T10:12:39.936Z,101005.28
2023-05-17T10:15:08.733Z,101001.88
2023-05-17T10:17:36.029Z,101016.50
2023-05-17T10:20:06.982Z,101010.84
2023-05-17T10:22:34.155Z,101018.69
2023-05-17T10:25:01.481Z,101010.91
2023-05-17T10:27:29.947Z,101010.63
2023-05-17T10:29:58.370Z,101018.59
2023-05-17T10:32:29.040Z,101017.22
2023-05-17T10:35:09.346Z,101004.31
2023-05-17T10:37:39.765Z,101013.13
2023-05-17T10:40:13.027Z,101013.78
2023-05-17T10:42:53.074Z,101010.66
2023-05-17T10:45:25.783Z,101015.91
2023-05-17T10:47:53.259Z,101007.84
2023-05-17T10:50:27.466Z,101011.94
2023-05-17T10:52:58.068Z,101014.38
2023-05-17T10:55:38.056Z,101010.66
2023-05-17T10:58:11.433Z,101015.75
2023-05-17T11:00:42.712Z,101018.16
2023-05-17T11:03:13.958Z,101011.78
2023-05-17T11:05:45.454Z,101001.84
2023-05-17T11:08:15.898Z,100989.28
2023-05-17T11:11:12.871Z,100991.28
2023-05-17T11:13:52.249Z,100987.59
2023-05-17T11:16:28.537Z,100980.91
2023-05-17T11:19:07.065Z,100987.47
2023-05-17T11:21:35.518Z,100975.03
2023-05-17T11:24:04.361Z,100983.84
2023-05-17T11:26:37.662Z,100983.56
2023-05-17T11:29:10.568Z,100993.34
2023-05-17T11:31:44.775Z,100978.59
2023-05-17T11:34:12.311Z,100978.16
2023-05-17T11:36:55.291Z,100982.06
2023-05-17T11:39:28.339Z,100965.44
2023-05-17T11:41:57.077Z,100966.22
2023-05-17T11:44:29.578Z,100964.09
2023-05-17T11:47:09.894Z,100982.28
2023-05-17T11:49:40.840Z,100984.16
2023-05-17T11:52:09.015Z,100966.88
2023-05-17T11:54:39.005Z,100964.09
2023-05-17T11:57:07.199Z,100967.25
2023-05-17T11:59:40.975Z,100968.53
2023-05-17T12:02:08.455Z,100975.69
2023-05-17T12:04:37.983Z,100990.94
2023-05-17T12:07:08.187Z,100971.44
2023-05-17T12:09:35.734Z,100969.25
2023-05-17T12:12:06.421Z,100966.41
2023-05-17T12:14:33.901Z,100967.06
2023-05-17T12:17:04.030Z,100969.19
2023-05-17T12:19:32.684Z,100958.34
2023-05-17T12:22:14.633Z,100955.13
2023-05-17T12:24:43.117Z,100957.78
2023-05-17T12:27:11.260Z,100954.31
2023-05-17T12:29:39.217Z,100960.19
2023-05-17T12:32:08.624Z,100948.19
2023-05-17T12:34:35.879Z,100933.13
2023-05-17T12:37:10.164Z,100934.28
2023-05-17T12:39:37.490Z,100910.56
2023-05-17T12:42:05.007Z,100905.59
2023-05-17T12:44:33.160Z,100896.66
2023-05-17T12:47:03.313Z,100883.03
2023-05-17T12:49:30.768Z,100884.75
2023-05-17T12:52:05.301Z,100885.66
2023-05-17T12:54:33.562Z,100877.69
2023-05-17T12:57:12.775Z,100888.28
2023-05-17T12:59:52.112Z,100894.19
2023-05-17T13:02:24.316Z,100889.97
2023-05-17T13:04:51.702Z,100897.53
2023-05-17T13:07:24.129Z,100885.69
2023-05-17T13:09:51.771Z,100886.03
2023-05-17T13:12:22.354Z,100891.78
2023-05-17T13:14:52.087Z,100885.97
2023-05-17T13:17:34.729Z,100880.47
2023-05-17T13:20:02.129Z,100886.00
2023-05-17T13:22:29.253Z,100880.72
2023-05-17T13:24:58.287Z,100883.91
2023-05-17T13:27:25.313Z,100871.97
2023-05-17T13:29:52.306Z,100872.94
2023-05-17T13:32:21.494Z,100867.28
2023-05-17T13:34:48.441Z,100881.66
2023-05-17T13:37:15.529Z,100890.59
2023-05-17T13:39:42.586Z,100885.91
2023-05-17T13:42:11.163Z,100888.03
2023-05-17T13:44:39.101Z,100872.91
2023-05-17T13:47:06.727Z,100862.00
2023-05-17T13:49:33.713Z,100858.16
2023-05-17T13:52:00.861Z,100855.22
2023-05-17T13:54:27.848Z,100859.31
2023-05-17T13:56:55.670Z,100868.66
2023-05-17T13:59:22.657Z,100869.13
2023-05-17T14:01:50.014Z,100876.19
2023-05-17T14:04:18.251Z,100881.94
2023-05-17T14:06:47.260Z,100879.13
2023-05-17T14:09:15.885Z,100871.63
2023-05-17T14:11:42.933Z,100859.28
2023-05-17T14:14:09.893Z,100848.31
2023-05-17T14:16:37.451Z,100856.53
2023-05-17T14:19:05.078Z,100855.84
2023-05-17T14:21:34.212Z,100864.56
2023-05-17T14:24:01.315Z,100863.00
2023-05-17T14:26:28.213Z,100860.38
2023-05-17T14:28:55.224Z,100849.09
2023-05-17T14:31:22.190Z,100851.94
2023-05-17T14:33:49.288Z,100863.50
2023-05-17T14:36:16.413Z,100845.31
2023-05-17T14:38:43.358Z,100831.34
2023-05-17T14:41:10.473Z,100825.94
2023-05-17T14:43:37.422Z,100834.22
2023-05-17T14:46:04.516Z,100840.53
2023-05-17T14:48:31.713Z,100825.03
2023-05-17T14:50:58.828Z,100821.22
2023-05-17T14:53:29.366Z,100817.03
2023-05-17T14:55:59.132Z,100830.56
2023-05-17T14:58:26.824Z,100833.59
2023-05-17T15:01:06.121Z,100824.50
2023-05-17T15:03:35.284Z,100812.53
2023-05-17T15:06:05.684Z,100817.06
2023-05-17T15:08:34.525Z,100824.03
2023-05-17T15:11:01.998Z,100818.03
2023-05-17T15:13:29.027Z,100814.75
2023-05-17T15:15:56.043Z,100815.03
2023-05-17T15:18:22.974Z,100808.69
2023-05-17T15:20:49.924Z,100821.00
2023-05-17T15:23:16.981Z,100807.78
2023-05-17T15:25:43.907Z,100804.22
2023-05-17T15:28:10.866Z,100800.72
2023-05-17T15:30:37.918Z,100789.34
2023-05-17T15:33:05.003Z,100805.13
2023-05-17T15:35:32.121Z,100803.81
2023-05-17T15:37:59.809Z,100796.84
2023-05-17T15:40:26.794Z,100797.38
2023-05-17T15:42:53.799Z,100797.84
2023-05-17T15:45:21.507Z,100808.28
2023-05-17T15:47:49.378Z,100806.81
2023-05-17T15:50:16.767Z,100794.94
2023-05-17T15:52:43.824Z,100786.88
2023-05-17T15:55:11.221Z,100797.56
2023-05-17T15:57:38.228Z,100804.00
2023-05-17T16:00:07.794Z,100817.38
2023-05-17T16:02:34.756Z,100811.53
2023-05-17T16:05:03.876Z,100794.13
2023-05-17T16:07:31.348Z,100805.78
2023-05-17T16:09:58.379Z,100801.97
2023-05-17T16:12:26.570Z,100802.41
2023-05-17T16:14:53.493Z,100800.25
2023-05-17T16:17:20.570Z,100800.00
2023-05-17T16:19:47.524Z,100804.47
2023-05-17T16:22:14.545Z,100792.69
2023-05-17T16:24:42.137Z,100794.88
2023-05-17T16:27:09.295Z,100796.13
2023-05-17T16:29:39.927Z,100785.34
2023-05-17T16:32:08.363Z,100787.97
2023-05-17T16:34:36.077Z,100796.38
2023-05-17T16:37:06.357Z,100805.28
2023-05-17T16:39:33.421Z,100799.75
2023-05-17T16:42:00.394Z,100796.19
2023-05-17T16:44:27.517Z,100810.94
2023-05-17T16:46:54.659Z,100811.84
2023-05-17T16:49:21.672Z,100806.56
2023-05-17T16:51:50.527Z,100808.78
2023-05-17T16:54:17.671Z,100803.56
2023-05-17T16:56:44.645Z,100803.41
2023-05-17T16:59:11.608Z,100807.34
2023-05-17T17:01:38.731Z,100807.69
2023-05-17T17:04:06.252Z,100811.22
2023-05-17T17:06:33.897Z,100815.00
2023-05-17T17:09:02.015Z,100816.78
2023-05-17T17:11:29.288Z,100811.84
2023-05-17T17:13:56.363Z,100819.72
2023-05-17T17:16:23.490Z,100834.38
2023-05-17T17:18:50.818Z,100839.34
2023-05-17T17:21:17.736Z,100832.81
2023-05-17T17:23:44.833Z,100841.22
2023-05-17T17:26:16.069Z,100842.00
2023-05-17T17:28:43.332Z,100844.13
2023-05-17T17:31:10.572Z,100842.81
2023-05-17T17:33:37.598Z,100844.06
2023-05-17T17:36:05.044Z,100852.00
2023-05-17T17:38:32.117Z,100843.88
2023-05-17T17:40:59.182Z,100844.47
2023-05-17T17:43:26.103Z,100854.00
2023-05-17T17:45:53.102Z,100854.13
2023-05-17T17:48:20.017Z,100855.22
2023-05-17T17:50:48.022Z,100843.41
2023-05-17T17:53:16.339Z,100843.50
2023-05-17T17:55:43.572Z,100845.50
2023-05-17T17:58:10.659Z,100838.44
2023-05-17T18:00:38.311Z,100831.38
2023-05-17T18:03:05.859Z,100841.75
2023-05-17T18:05:32.888Z,100838.00
2023-05-17T18:07:59.844Z,100858.22
2023-05-17T18:10:28.375Z,100847.97
2023-05-17T18:12:55.738Z,100851.41
2023-05-17T18:15:22.971Z,100853.13
2023-05-17T18:17:52.005Z,100856.19
2023-05-17T18:20:19.640Z,100853.22
2023-05-17T18:22:47.347Z,100855.22
2023-05-17T18:25:14.625Z,100865.84
2023-05-17T18:27:42.193Z,100854.66
2023-05-17T18:30:10.748Z,100856.84
2023-05-17T18:32:37.934Z,100864.03
2023-05-17T18:35:05.708Z,100861.50
2023-05-17T18:37:33.022Z,100862.72
2023-05-17T18:40:02.190Z,100861.66
2023-05-17T18:42:29.594Z,100866.22
2023-05-17T18:44:56.551Z,100858.69
2023-05-17T18:47:23.732Z,100860.91
2023-05-17T18:49:52.214Z,100857.56
2023-05-17T18:52:19.428Z,100858.78
2023-05-17T18:54:47.736Z,100867.91
2023-05-17T18:57:15.291Z,100867.81
2023-05-17T18:59:42.622Z,100871.88
2023-05-17T19:02:09.602Z,100868.88
2023-05-17T19:04:36.977Z,100870.78
2023-05-17T19:07:04.188Z,100877.00
2023-05-17T19:09:32.018Z,100875.66
2023-05-17T19:11:59.407Z,100877.19
2023-05-17T19:14:27.414Z,100878.06
2023-05-17T19:16:56.862Z,100887.09
2023-05-17T19:19:25.368Z,100890.94
2023-05-17T19:21:52.353Z,100891.28
2023-05-17T19:24:19.459Z,100895.13
2023-05-17T19:26:46.557Z,100908.31
2023-05-17T19:29:13.646Z,100916.28
2023-05-17T19:31:40.761Z,100926.03
2023-05-17T19:34:07.740Z,100925.34
2023-05-17T19:36:34.680Z,100930.84
2023-05-17T19:39:01.634Z,100933.28
2023-05-17T19:41:28.549Z,100937.63
2023-05-17T19:43:55.930Z,100947.47
2023-05-17T19:46:23.021Z,100952.22
2023-05-17T19:48:50.002Z,100968.28
2023-05-17T19:51:17.202Z,100968.34
2023-05-17T19:53:52.571Z,100974.50
2023-05-17T19:56:24.137Z,100967.41
2023-05-17T19:58:52.292Z,100958.47
2023-05-17T20:01:19.356Z,100955.19
2023-05-17T20:03:46.464Z,100956.19
2023-05-17T20:06:15.056Z,100959.84
2023-05-17T20:08:42.472Z,100961.84
2023-05-17T20:11:09.996Z,100965.91
2023-05-17T20:13:40.324Z,100975.28
2023-05-17T20:16:14.568Z,100971.03
2023-05-17T20:18:45.530Z,100965.03
2023-05-17T20:21:18.173Z,100962.47
2023-05-17T20:23:46.148Z,100976.81
2023-05-17T20:26:17.141Z,100978.78
2023-05-17T20:28:44.815Z,100982.16
2023-05-17T20:31:12.173Z,100978.78
2023-05-17T20:33:39.240Z,100988.72
2023-05-17T20:36:06.457Z,100982.50
2023-05-17T20:38:33.474Z,100993.66
2023-05-17T20:41:00.816Z,100991.00
2023-05-17T20:43:28.993Z,100991.13
2023-05-17T20:45:56.600Z,101001.41
2023-05-17T20:48:23.615Z,100998.38
2023-05-17T20:50:50.706Z,101002.44
2023-05-17T20:53:17.681Z,101000.16
2023-05-17T20:55:44.707Z,101001.59
2023-05-17T20:58:11.727Z,101002.38
2023-05-17T21:00:38.740Z,101002.00
2023-05-17T21:03:06.105Z,101006.50
2023-05-17T21:05:36.147Z,101018.13
2023-05-17T21:08:03.337Z,101021.88
2023-05-17T21:10:30.677Z,101022.41
2023-05-17T21:12:57.906Z,101022.38
2023-05-17T21:15:25.221Z,101020.84
2023-05-17T21:17:53.262Z,101030.31
2023-05-17T21:20:21.463Z,101030.69
2023-05-17T21:22:49.954Z,101029.31
2023-05-17T21:25:17.984Z,101024.56
2023-05-17T21:27:45.392Z,101038.56
2023-05-17T21:30:12.547Z,101033.97
2023-05-17T21:32:39.537Z,101043.38
2023-05-17T21:35:06.991Z,101051.66
2023-05-17T21:37:34.450Z,101057.88
2023-05-17T21:40:01.460Z,101061.06
2023-05-17T21:42:29.379Z,101051.50
2023-05-17T21:44:56.381Z,101060.38
2023-05-17T21:47:24.031Z,101054.84
2023-05-17T21:49:51.096Z,101045.66
2023-05-17T21:52:18.206Z,101043.09
2023-05-17T21:54:45.316Z,101047.91
2023-05-17T21:57:12.533Z,101052.41
2023-05-17T21:59:39.427Z,101050.41
2023-05-17T22:02:08.539Z,101053.94
2023-05-17T22:04:36.157Z,101047.19
2023-05-17T22:07:03.186Z,101064.84
2023-05-17T22:09:30.153Z,101064.41
2023-05-17T22:11:58.736Z,101075.78
2023-05-17T22:14:27.432Z,101084.13
2023-05-17T22:16:56.019Z,101088.38
2023-05-17T22:19:23.511Z,101085.16
2023-05-17T22:21:51.215Z,101082.03
2023-05-17T22:24:19.933Z,101086.47
2023-05-17T22:26:47.153Z,101074.16
2023-05-17T22:29:14.142Z,101079.34
2023-05-17T22:31:41.093Z,101078.28
2023-05-17T22:34:08.058Z,101065.91
2023-05-17T22:36:34.957Z,101065.59
2023-05-17T22:39:01.931Z,101061.09
2023-05-17T22:41:29.028Z,101072.38
2023-05-17T22:43:56.135Z,101075.88
2023-05-17T22:46:24.341Z,101078.19
2023-05-17T22:48:52.753Z,101076.94
2023-05-17T22:51:19.742Z,101082.03
2023-05-17T22:53:47.094Z,101077.69
2023-05-17T22:56:14.039Z,101073.31
2023-05-17T22:58:41.177Z,101068.94
2023-05-17T23:01:08.323Z,101062.34
2023-05-17T23:03:35.316Z,101054.41
2023-05-17T23:06:03.202Z,101070.97
2023-05-17T23:08:30.627Z,101066.44
2023-05-17T23:10:58.467Z,101077.28
2023-05-17T23:13:26.633Z,101082.88
2023-05-17T23:15:53.905Z,101088.84
2023-05-17T23:18:21.094Z,101089.91
2023-05-17T23:20:48.961Z,101082.16
2023-05-17T23:23:16.447Z,101084.41
2023-05-17T23:25:48.403Z,101085.63
2023-05-17T23:28:15.351Z,101092.69
2023-05-17T23:30:44.439Z,101090.94
2023-05-17T23:33:11.618Z,101085.34
2023-05-17T23:35:38.557Z,101087.66
2023-05-17T23:38:07.136Z,101076.56
2023-05-17T23:40:34.391Z,101066.00
2023-05-17T23:43:01.366Z,101072.72
2023-05-17T23:45:29.774Z,101070.63
2023-05-17T23:48:00.290Z,101072.50
2023-05-17T23:50:27.568Z,101055.69
2023-05-17T23:52:54.525Z,101050.22
2023-05-17T23:55:22.531Z,101059.16
2023-05-17T23:57:49.689Z,101055.84
